Time;durP1;ratioP1;P1;durP2;ratioP2;P2;SDS_P1;SDS_P2;PMS_P1;PMS_P2;Temp;Humidity;BMP_temperature;BMP_pressure;BME280_temperature;BME280_humidity;BME280_pressure;Samples;Min_cycle;Max_cycle;Signal;HPM_P1;HPM_P2
2022/09/01 00:01:56;;;;;;;9.27;8.45;;;19.20;93.80;;;;;;5097630;28;20645;-87
2022/09/01 00:04:27;;;;;;;8.80;8.02;;;19.20;93.60;;;;;;5098158;28;20677;-87
2022/09/01 00:06:55;;;;;;;8.82;7.93;;;19.20;94.00;;;;;;5101883;28;20251;-87
2022/09/01 00:09:22;;;;;;;9.52;8.73;;;19.10;92.70;;;;;;5100599;28;20285;-87
2022/09/01 00:11:51;;;;;;;8.48;7.78;;;19.00;93.90;;;;;;5099467;28;20270;-85
2022/09/01 00:14:23;;;;;;;8.57;7.97;;;18.90;94.00;;;;;;5095412;28;20306;-85
2022/09/01 00:16:49;;;;;;;8.90;8.10;;;18.90;94.00;;;;;;5096888;28;20175;-86
2022/09/01 00:19:14;;;;;;;8.32;7.63;;;19.00;93.90;;;;;;5079459;28;20295;-88
2022/09/01 00:21:43;;;;;;;9.32;8.52;;;19.00;93.60;;;;;;5099367;28;20655;-88
2022/09/01 00:24:10;;;;;;;8.50;7.90;;;19.00;93.00;;;;;;5097557;28;20208;-87
2022/09/01 00:26:37;;;;;;;8.45;7.70;;;19.00;92.60;;;;;;5099111;28;20191;-84
2022/09/01 00:29:03;;;;;;;8.82;7.97;;;19.00;93.00;;;;;;5101089;28;20186;-85
2022/09/01 00:31:29;;;;;;;8.93;8.23;;;19.00;92.30;;;;;;5100212;28;20264;-87
2022/09/01 00:33:55;;;;;;;8.55;7.82;;;19.00;92.60;;;;;;5099298;28;20199;-86
2022/09/01 00:36:21;;;;;;;7.65;7.05;;;19.10;93.30;;;;;;5095690;28;20202;-84
2022/09/01 00:38:48;;;;;;;8.68;8.07;;;19.20;93.00;;;;;;5093263;28;20221;-85
2022/09/01 00:41:14;;;;;;;8.23;7.43;;;19.20;92.20;;;;;;5092870;28;20217;-86
2022/09/01 00:43:46;;;;;;;8.13;7.53;;;19.30;91.50;;;;;;5094778;28;20189;-85
2022/09/01 00:46:25;;;;;;;8.05;7.35;;;19.30;91.70;;;;;;5094509;28;20204;-87
2022/09/01 00:48:56;;;;;;;7.53;6.93;;;19.30;91.40;;;;;;5092331;28;20213;-85
2022/09/01 00:51:22;;;;;;;8.13;7.53;;;19.30;91.20;;;;;;5093807;28;20221;-86
2022/09/01 00:53:48;;;;;;;8.45;7.47;;;19.20;91.30;;;;;;5095344;28;20213;-86
2022/09/01 00:56:14;;;;;;;7.82;7.22;;;19.30;90.80;;;;;;5094776;28;20185;-85
2022/09/01 00:58:41;;;;;;;8.10;7.47;;;19.20;90.10;;;;;;5095028;28;20273;-86
2022/09/01 01:01:08;;;;;;;7.60;7.00;;;19.10;91.10;;;;;;5083763;28;20194;-86
2022/09/01 01:03:34;;;;;;;8.05;7.45;;;19.10;91.40;;;;;;5097365;28;20240;-86
2022/09/01 01:06:04;;;;;;;7.38;6.88;;;19.10;91.50;;;;;;5097983;28;20268;-87
2022/09/01 01:08:33;;;;;;;7.32;6.72;;;19.10;90.90;;;;;;5095837;28;20196;-85
2022/09/01 01:11:16;;;;;;;7.75;6.82;;;19.10;90.50;;;;;;5092597;28;20190;-85
2022/09/01 01:14:11;;;;;;;8.18;7.55;;;19.00;90.10;;;;;;5092975;28;20202;-87
2022/09/01 01:16:43;;;;;;;7.82;7.13;;;18.80;90.80;;;;;;5094503;28;20214;-86
2022/09/01 01:25:07;;;;;;;7.60;6.93;;;18.50;92.60;;;;;;5094202;28;20279;-85
2022/09/01 01:27:34;;;;;;;7.28;6.68;;;18.40;92.60;;;;;;5093387;28;20199;-87
2022/09/01 01:30:02;;;;;;;7.22;6.60;;;18.30;93.10;;;;;;5097729;28;20213;-85
2022/09/01 01:32:28;;;;;;;7.35;6.75;;;18.40;92.60;;;;;;5096362;28;20206;-85
2022/09/01 01:34:55;;;;;;;7.25;6.70;;;18.40;93.00;;;;;;5096813;28;20207;-87
2022/09/01 01:37:24;;;;;;;7.50;6.72;;;18.40;91.90;;;;;;5083462;28;20188;-86
2022/09/01 01:39:50;;;;;;;7.18;6.53;;;18.50;91.90;;;;;;5090200;28;20187;-85
2022/09/01 01:42:16;;;;;;;7.38;6.82;;;18.40;92.00;;;;;;5090518;28;20178;-85
2022/09/01 01:44:42;;;;;;;6.53;5.90;;;18.50;92.20;;;;;;5090385;28;20203;-86
2022/09/01 01:47:12;;;;;;;7.13;6.53;;;18.50;91.90;;;;;;5085072;28;20704;-85
2022/09/01 01:49:42;;;;;;;7.30;6.80;;;18.60;91.80;;;;;;5085578;28;20198;-86
2022/09/01 01:52:09;;;;;;;6.97;6.40;;;18.60;92.00;;;;;;5092591;28;20207;-85
2022/09/01 01:54:36;;;;;;;7.15;6.65;;;18.60;91.80;;;;;;5092179;28;20683;-85
2022/09/01 01:57:06;;;;;;;6.38;5.93;;;18.60;91.40;;;;;;5093275;28;20251;-85
2022/09/01 01:59:33;;;;;;;7.10;6.60;;;18.50;91.50;;;;;;5089021;28;20199;-85
2022/09/01 02:02:03;;;;;;;6.38;5.85;;;18.50;91.80;;;;;;5092767;28;20190;-85
2022/09/01 02:04:32;;;;;;;6.50;5.88;;;18.50;91.80;;;;;;5090710;28;20606;-87
2022/09/01 02:06:58;;;;;;;6.65;6.15;;;18.50;91.70;;;;;;5087578;28;20194;-86
2022/09/01 02:09:24;;;;;;;6.75;6.15;;;18.40;91.40;;;;;;5078075;28;20187;-85
2022/09/01 02:11:54;;;;;;;6.30;5.70;;;18.30;92.70;;;;;;5098639;28;20209;-86
2022/09/01 02:14:20;;;;;;;6.72;6.15;;;18.40;91.90;;;;;;5096482;28;20691;-87
2022/09/01 02:16:46;;;;;;;6.93;6.32;;;18.30;91.90;;;;;;5080745;28;20301;-87
2022/09/01 02:19:12;;;;;;;7.43;6.72;;;18.30;91.90;;;;;;5098702;28;20662;-87
2022/09/01 02:21:43;;;;;;;6.88;6.38;;;18.30;92.10;;;;;;5096007;28;20835;-86
2022/09/01 02:24:10;;;;;;;6.68;6.28;;;18.20;92.10;;;;;;5097123;28;20236;-85
2022/09/01 02:26:46;;;;;;;7.13;6.05;;;18.00;93.00;;;;;;5098811;28;20194;-86
2022/09/01 02:29:17;;;;;;;6.90;6.40;;;18.00;93.40;;;;;;5100305;28;20174;-86
2022/09/01 02:31:46;;;;;;;5.88;5.38;;;18.20;93.20;;;;;;5099147;28;20187;-85
2022/09/01 02:34:15;;;;;;;6.43;5.93;;;18.00;93.00;;;;;;5089832;28;20694;-86
2022/09/01 02:36:47;;;;;;;6.40;5.80;;;17.90;94.00;;;;;;5093811;28;20208;-85
2022/09/01 02:39:22;;;;;;;7.13;6.57;;;17.80;94.00;;;;;;5093575;28;20192;-85
2022/09/01 02:41:48;;;;;;;6.55;6.15;;;17.80;93.90;;;;;;5095373;28;20250;-85
2022/09/01 02:44:14;;;;;;;7.53;6.93;;;17.70;94.00;;;;;;5098334;28;20564;-86
2022/09/01 02:46:42;;;;;;;6.50;6.00;;;17.80;94.00;;;;;;5097647;28;20199;-86
2022/09/01 02:49:16;;;;;;;7.00;6.30;;;17.70;94.10;;;;;;5092071;28;20192;-85
2022/09/01 02:51:43;;;;;;;7.03;6.53;;;17.80;94.50;;;;;;5092139;28;20206;-84
2022/09/01 02:54:15;;;;;;;7.22;6.55;;;17.70;94.60;;;;;;5093554;28;20206;-88
2022/09/01 02:56:41;;;;;;;7.38;6.78;;;17.70;94.50;;;;;;5094292;28;20272;-86
2022/09/01 02:59:11;;;;;;;6.55;6.05;;;17.60;94.50;;;;;;5096174;28;20236;-85
2022/09/01 03:01:38;;;;;;;6.85;6.25;;;17.50;95.80;;;;;;5070420;28;20186;-85
2022/09/01 03:04:08;;;;;;;7.38;6.68;;;17.50;96.50;;;;;;5086428;28;20225;-85
2022/09/01 03:06:36;;;;;;;7.40;6.70;;;17.40;96.30;;;;;;5093914;28;20216;-85
2022/09/01 03:09:05;;;;;;;7.05;6.50;;;17.40;96.00;;;;;;5093455;28;20283;-85
2022/09/01 03:11:36;;;;;;;6.68;6.18;;;17.40;96.00;;;;;;5095107;28;20296;-86
2022/09/01 03:14:03;;;;;;;7.35;6.70;;;17.30;96.40;;;;;;5093987;28;20260;-84
2022/09/01 03:16:29;;;;;;;7.53;6.93;;;17.30;97.00;;;;;;5094727;28;20194;-84
2022/09/01 03:18:55;;;;;;;6.95;6.45;;;17.30;96.70;;;;;;5092076;28;20616;-85
2022/09/01 03:21:22;;;;;;;6.90;6.30;;;17.20;96.80;;;;;;5094195;28;20253;-83
2022/09/01 03:23:50;;;;;;;7.63;6.93;;;17.30;96.70;;;;;;5085921;28;20304;-85
2022/09/01 03:26:18;;;;;;;7.07;6.38;;;17.30;96.70;;;;;;5091274;28;20204;-86
2022/09/01 03:28:44;;;;;;;7.27;6.57;;;17.20;97.40;;;;;;5093004;28;20200;-84
2022/09/01 03:31:10;;;;;;;7.70;7.00;;;17.20;97.10;;;;;;5085194;28;20193;-84
2022/09/01 03:33:37;;;;;;;7.30;6.67;;;17.20;97.10;;;;;;5091457;28;20184;-85
2022/09/01 03:36:03;;;;;;;7.53;6.83;;;17.20;97.30;;;;;;5088503;28;20261;-85
2022/09/01 03:38:30;;;;;;;7.70;7.10;;;17.20;97.70;;;;;;5083646;28;20184;-86
2022/09/01 03:41:04;;;;;;;7.70;7.07;;;17.20;97.40;;;;;;5088084;28;20197;-85
2022/09/01 03:43:32;;;;;;;7.13;6.55;;;17.30;97.30;;;;;;5089097;28;20205;-86
2022/09/01 03:45:59;;;;;;;7.80;6.97;;;17.20;97.10;;;;;;5090735;28;20200;-85
2022/09/01 03:48:27;;;;;;;7.88;7.18;;;17.20;97.60;;;;;;5086340;28;20198;-86
2022/09/01 03:50:53;;;;;;;7.53;6.80;;;17.20;97.40;;;;;;5086582;28;20268;-86
2022/09/01 03:53:26;;;;;;;7.50;6.80;;;17.30;97.30;;;;;;5082392;28;20216;-85
2022/09/01 03:55:53;;;;;;;7.60;7.00;;;17.10;97.50;;;;;;5100225;28;20199;-86
2022/09/01 03:58:20;;;;;;;7.82;7.25;;;17.20;97.30;;;;;;5109518;28;20180;-85
2022/09/01 04:00:50;;;;;;;7.75;7.15;;;17.20;97.40;;;;;;5108765;28;20212;-86
2022/09/01 04:03:20;;;;;;;7.75;7.15;;;17.20;97.30;;;;;;5101624;28;20580;-85
2022/09/01 04:05:47;;;;;;;8.30;7.50;;;17.10;97.70;;;;;;5096400;28;20693;-85
2022/09/01 04:08:13;;;;;;;8.27;7.53;;;17.00;97.90;;;;;;5091058;28;20271;-85
2022/09/01 04:10:51;;;;;;;8.30;7.68;;;17.00;98.30;;;;;;5094531;28;20225;-85
2022/09/01 04:13:24;;;;;;;9.10;8.30;;;16.90;98.40;;;;;;5094219;28;20212;-85
2022/09/01 04:15:51;;;;;;;8.70;7.33;;;17.00;98.70;;;;;;5094557;28;20695;-85
2022/09/01 04:18:20;;;;;;;8.47;7.83;;;16.90;98.90;;;;;;5094939;28;20218;-84
2022/09/01 04:20:49;;;;;;;9.13;8.32;;;17.00;98.20;;;;;;5094683;28;20212;-85
2022/09/01 04:23:25;;;;;;;9.07;8.27;;;17.00;98.20;;;;;;5092893;28;20220;-85
2022/09/01 04:25:54;;;;;;;9.00;8.30;;;17.00;98.10;;;;;;5092075;28;20242;-84
2022/09/01 04:28:23;;;;;;;9.40;8.60;;;16.80;99.00;;;;;;5090035;28;20184;-84
2022/09/01 04:30:55;;;;;;;9.27;8.57;;;16.60;99.90;;;;;;5089239;28;20205;-86
2022/09/01 04:33:26;;;;;;;10.87;8.30;;;16.60;99.90;;;;;;5088626;28;20264;-85
2022/09/01 04:35:55;;;;;;;8.97;8.27;;;16.60;99.90;;;;;;5093894;28;20175;-87
2022/09/01 04:38:23;;;;;;;10.17;8.60;;;16.60;99.90;;;;;;5107477;28;20190;-87
2022/09/01 04:40:50;;;;;;;9.80;9.07;;;16.60;99.90;;;;;;5104447;28;20173;-87
2022/09/01 04:43:16;;;;;;;9.57;8.87;;;16.60;99.90;;;;;;5108866;28;20192;-86
2022/09/01 04:45:44;;;;;;;9.30;8.60;;;16.60;99.90;;;;;;5103225;28;20212;-85
2022/09/01 04:48:10;;;;;;;8.97;8.10;;;16.60;99.90;;;;;;5096319;28;20205;-85
2022/09/01 04:50:39;;;;;;;9.33;8.53;;;16.60;99.90;;;;;;5094707;28;20210;-85
2022/09/01 04:53:06;;;;;;;9.07;8.37;;;16.70;99.90;;;;;;5084520;28;20231;-85
2022/09/01 04:55:32;;;;;;;9.17;8.47;;;16.80;99.90;;;;;;5094026;28;20200;-85
2022/09/01 04:58:00;;;;;;;8.90;8.23;;;16.80;99.80;;;;;;5084011;28;20191;-85
2022/09/01 05:00:31;;;;;;;8.15;7.55;;;16.90;99.80;;;;;;5092064;28;20843;-85
2022/09/01 05:03:03;;;;;;;9.23;8.33;;;17.00;98.70;;;;;;5089710;28;20185;-87
2022/09/01 05:05:38;;;;;;;9.53;8.73;;;17.00;99.20;;;;;;5111118;28;20217;-87
2022/09/01 05:08:05;;;;;;;10.13;9.10;;;16.90;99.40;;;;;;5094073;28;20172;-85
2022/09/01 05:10:32;;;;;;;10.20;9.30;;;16.90;99.30;;;;;;5088339;28;20242;-85
2022/09/01 05:12:57;;;;;;;9.73;8.73;;;16.90;99.10;;;;;;5091440;28;20211;-85
2022/09/01 05:15:23;;;;;;;10.37;9.53;;;16.90;99.30;;;;;;5089407;28;20324;-86
2022/09/01 05:17:50;;;;;;;10.60;9.80;;;16.90;99.40;;;;;;5089984;28;20769;-86
2022/09/01 05:20:16;;;;;;;9.90;9.20;;;16.80;99.70;;;;;;5080830;28;20821;-85
2022/09/01 05:22:41;;;;;;;10.40;9.40;;;16.80;99.80;;;;;;5089405;28;20197;-85
2022/09/01 05:25:12;;;;;;;10.50;9.53;;;16.80;99.70;;;;;;5087510;28;20216;-86
2022/09/01 05:27:48;;;;;;;10.13;9.43;;;16.80;99.80;;;;;;5087184;28;20199;-85
2022/09/01 05:30:16;;;;;;;10.27;9.47;;;16.80;99.90;;;;;;5084923;28;20192;-85
2022/09/01 05:32:47;;;;;;;10.70;9.80;;;16.80;99.90;;;;;;5083490;28;20219;-85
2022/09/01 05:35:13;;;;;;;10.60;9.77;;;16.70;99.90;;;;;;5086699;28;20224;-84
2022/09/01 05:37:40;;;;;;;11.83;10.53;;;16.70;99.90;;;;;;5091419;28;20191;-86
2022/09/01 05:40:14;;;;;;;11.07;9.97;;;16.70;99.90;;;;;;5095207;28;20196;-85
2022/09/01 05:42:43;;;;;;;10.67;9.77;;;16.70;99.90;;;;;;5092447;28;20312;-85
2022/09/01 05:45:13;;;;;;;10.53;9.73;;;16.80;99.90;;;;;;5095425;28;20222;-84
2022/09/01 05:47:40;;;;;;;11.27;10.37;;;17.00;99.90;;;;;;5098355;28;20207;-86
2022/09/01 05:50:10;;;;;;;10.30;9.50;;;17.00;99.80;;;;;;5090760;28;20212;-85
2022/09/01 05:52:37;;;;;;;10.37;9.53;;;17.00;99.80;;;;;;5090111;28;20872;-85
2022/09/01 05:55:07;;;;;;;11.40;10.30;;;17.00;99.80;;;;;;5090607;28;20281;-85
2022/09/01 05:57:34;;;;;;;12.57;11.37;;;17.10;99.90;;;;;;5091967;28;20672;-85
2022/09/01 06:00:09;;;;;;;12.65;11.70;;;17.10;99.40;;;;;;5089572;28;20589;-85
2022/09/01 06:02:36;;;;;;;12.02;10.88;;;17.20;99.20;;;;;;5088409;28;20727;-86
2022/09/01 06:05:02;;;;;;;11.70;10.60;;;17.20;99.50;;;;;;5090970;28;20691;-84
2022/09/01 06:07:28;;;;;;;13.20;11.10;;;17.40;99.20;;;;;;5090599;28;20204;-86
2022/09/01 06:09:53;;;;;;;13.07;11.77;;;17.50;98.50;;;;;;5091002;28;20202;-85
2022/09/01 06:12:22;;;;;;;12.88;11.68;;;17.50;98.40;;;;;;5091529;28;20243;-85
2022/09/01 06:14:49;;;;;;;12.50;11.40;;;17.60;98.40;;;;;;5089745;28;20218;-85
2022/09/01 06:17:20;;;;;;;14.27;12.82;;;17.60;97.80;;;;;;5083173;28;20190;-86
2022/09/01 06:19:47;;;;;;;13.90;12.70;;;17.70;97.20;;;;;;5095770;28;20189;-85
2022/09/01 06:22:12;;;;;;;12.55;11.50;;;17.80;97.00;;;;;;5097079;28;20209;-86
2022/09/01 06:24:39;;;;;;;12.93;11.82;;;17.70;97.20;;;;;;5095355;28;20333;-85
2022/09/01 06:27:08;;;;;;;14.63;12.18;;;17.70;97.50;;;;;;5094082;28;20190;-86
2022/09/01 06:29:38;;;;;;;12.70;11.45;;;17.80;96.90;;;;;;5092825;28;20200;-85
2022/09/01 06:32:11;;;;;;;11.88;10.85;;;17.90;96.90;;;;;;5095275;28;20676;-85
2022/09/01 06:34:50;;;;;;;12.45;11.55;;;17.90;96.70;;;;;;5092425;28;20202;-85
2022/09/01 06:37:21;;;;;;;13.43;11.95;;;18.00;96.60;;;;;;5095096;28;20185;-85
2022/09/01 06:39:47;;;;;;;12.80;11.68;;;18.00;96.50;;;;;;5085347;28;20197;-85
2022/09/01 06:42:14;;;;;;;25.77;12.00;;;18.10;96.30;;;;;;5091512;28;20202;-86
2022/09/01 06:44:40;;;;;;;20.45;12.73;;;18.10;96.60;;;;;;5094010;28;20209;-85
2022/09/01 06:47:07;;;;;;;12.23;11.05;;;18.10;96.50;;;;;;5095760;28;20734;-85
2022/09/01 06:49:33;;;;;;;11.80;10.80;;;18.20;96.60;;;;;;5089596;28;20279;-85
2022/09/01 06:52:01;;;;;;;13.02;11.93;;;18.20;96.70;;;;;;5094682;28;20234;-85
2022/09/01 06:54:30;;;;;;;12.05;11.15;;;18.30;96.30;;;;;;5094546;28;20211;-86
2022/09/01 06:56:57;;;;;;;12.68;11.57;;;18.20;96.00;;;;;;5095917;28;20175;-85
2022/09/01 06:59:30;;;;;;;12.85;11.70;;;18.30;96.40;;;;;;5095011;28;20674;-86
2022/09/01 07:02:00;;;;;;;12.38;11.27;;;18.30;96.20;;;;;;5090775;28;20205;-86
2022/09/01 07:04:28;;;;;;;13.52;12.32;;;18.20;96.30;;;;;;5095099;28;20220;-86
2022/09/01 07:06:55;;;;;;;12.55;11.65;;;18.20;96.70;;;;;;5092320;28;20760;-86
2022/09/01 07:09:22;;;;;;;12.82;11.63;;;18.20;96.50;;;;;;5074939;28;20255;-87
2022/09/01 07:11:48;;;;;;;13.70;12.48;;;18.30;96.30;;;;;;5088840;28;20211;-86
2022/09/01 07:14:15;;;;;;;13.15;12.07;;;18.30;96.30;;;;;;5084697;28;20699;-87
2022/09/01 07:16:42;;;;;;;13.32;12.25;;;18.40;95.50;;;;;;5091262;28;20182;-87
2022/09/01 07:19:12;;;;;;;12.52;11.43;;;18.40;95.20;;;;;;5076688;28;20186;-86
2022/09/01 07:21:37;;;;;;;13.80;12.55;;;18.60;96.10;;;;;;5095909;28;20182;-85
2022/09/01 07:24:05;;;;;;;13.82;12.43;;;18.60;95.40;;;;;;5075114;28;20359;-86
2022/09/01 07:26:32;;;;;;;13.65;12.38;;;18.70;95.30;;;;;;5091938;28;20221;-86
2022/09/01 07:28:58;;;;;;;14.00;12.52;;;18.70;94.50;;;;;;5100107;28;20276;-86
2022/09/01 07:31:37;;;;;;;12.77;11.75;;;18.70;94.30;;;;;;5095131;28;20226;-86
2022/09/01 07:34:11;;;;;;;11.95;10.85;;;18.80;93.70;;;;;;5092876;28;20226;-87
2022/09/01 07:36:41;;;;;;;13.25;12.15;;;18.80;93.80;;;;;;5099475;28;20216;-87
2022/09/01 07:39:13;;;;;;;12.25;11.20;;;18.90;94.00;;;;;;5082668;28;20546;-87
2022/09/01 07:41:40;;;;;;;13.02;11.88;;;19.00;94.30;;;;;;5092835;28;20188;-85
2022/09/01 07:44:09;;;;;;;12.95;11.93;;;19.10;93.30;;;;;;5089789;28;20298;-85
2022/09/01 07:46:35;;;;;;;13.02;11.90;;;19.20;93.10;;;;;;5088560;28;20207;-85
2022/09/01 07:49:02;;;;;;;12.75;11.75;;;19.30;92.70;;;;;;5095719;28;20194;-86
2022/09/01 07:51:29;;;;;;;13.82;12.50;;;19.30;92.80;;;;;;5097433;28;20209;-85
2022/09/01 07:53:55;;;;;;;12.70;11.70;;;19.50;91.50;;;;;;5086664;28;20203;-85
2022/09/01 07:56:23;;;;;;;12.63;11.38;;;19.50;90.70;;;;;;5096113;28;20195;-86
2022/09/01 07:58:50;;;;;;;12.00;10.93;;;19.60;90.60;;;;;;5094474;28;20183;-85
2022/09/01 08:01:25;;;;;;;14.13;11.68;;;19.70;90.20;;;;;;5090356;28;20191;-86
2022/09/01 08:03:57;;;;;;;11.80;10.90;;;19.80;89.70;;;;;;5093382;28;20232;-85
2022/09/01 08:06:25;;;;;;;12.18;11.20;;;19.80;89.50;;;;;;5078252;28;20193;-85
2022/09/01 08:08:53;;;;;;;12.32;11.25;;;20.10;89.80;;;;;;5096389;28;20187;-86
2022/09/01 08:11:25;;;;;;;12.40;11.25;;;20.10;88.00;;;;;;5096467;28;20188;-84
2022/09/01 08:13:52;;;;;;;11.88;10.88;;;20.20;88.50;;;;;;5101263;28;20214;-85
2022/09/01 08:16:19;;;;;;;11.07;10.05;;;20.20;87.70;;;;;;5097788;28;20181;-86
2022/09/01 08:18:46;;;;;;;11.35;10.45;;;20.40;86.90;;;;;;5100538;28;20193;-87
2022/09/01 08:21:13;;;;;;;11.98;11.02;;;20.50;86.80;;;;;;5098673;28;20185;-87
2022/09/01 08:23:40;;;;;;;11.15;10.18;;;20.60;85.30;;;;;;5102179;28;20175;-86
2022/09/01 08:26:13;;;;;;;10.70;9.90;;;20.60;85.70;;;;;;5098878;28;20218;-86
2022/09/01 08:28:40;;;;;;;10.23;9.18;;;20.80;85.10;;;;;;5101063;28;20201;-85
2022/09/01 08:31:10;;;;;;;11.98;10.45;;;20.90;84.30;;;;;;5101172;28;20178;-85
2022/09/01 08:33:37;;;;;;;11.05;10.15;;;20.90;83.00;;;;;;5077279;28;20194;-85
2022/09/01 08:36:10;;;;;;;9.93;9.10;;;21.00;83.00;;;;;;5098730;28;20555;-86
2022/09/01 08:38:36;;;;;;;9.55;8.75;;;21.00;83.40;;;;;;5097931;28;20212;-85
2022/09/01 08:41:02;;;;;;;9.02;8.30;;;21.10;80.20;;;;;;5097582;28;20186;-85
2022/09/01 08:43:54;;;;;;;9.32;8.63;;;21.10;81.20;;;;;;5087804;28;20194;-86
2022/09/01 08:46:36;;;;;;;9.57;8.85;;;21.20;80.30;;;;;;5097300;28;20217;-84
2022/09/01 08:49:08;;;;;;;9.52;8.65;;;21.20;81.20;;;;;;5087194;28;20189;-85
2022/09/01 08:51:54;;;;;;;9.63;8.85;;;21.50;79.70;;;;;;5098424;28;20198;-87
2022/09/01 08:54:29;;;;;;;9.73;8.88;;;21.60;79.20;;;;;;5097798;28;20288;-85
2022/09/01 08:57:05;;;;;;;9.63;8.85;;;21.70;78.50;;;;;;5096493;28;20177;-85
2022/09/01 08:59:31;;;;;;;9.50;8.60;;;21.80;77.70;;;;;;5099732;28;20187;-83
2022/09/01 09:02:10;;;;;;;9.75;9.00;;;21.80;77.30;;;;;;5093315;28;20201;-86
2022/09/01 09:04:54;;;;;;;8.60;8.00;;;21.90;78.10;;;;;;5099979;28;20202;-86
2022/09/01 09:07:52;;;;;;;8.68;7.88;;;22.00;78.00;;;;;;5093772;28;20235;-85
2022/09/01 09:10:24;;;;;;;9.00;8.20;;;22.40;77.10;;;;;;5100764;28;20197;-85
2022/09/01 09:13:22;;;;;;;8.63;7.88;;;22.60;74.90;;;;;;5099710;28;20209;-85
2022/09/01 09:15:59;;;;;;;8.15;7.55;;;22.70;72.50;;;;;;5063994;28;20245;-85
2022/09/01 09:18:54;;;;;;;8.75;7.95;;;22.80;71.00;;;;;;5098537;28;20571;-86
2022/09/01 09:21:28;;;;;;;8.32;7.72;;;22.80;70.50;;;;;;5056831;28;20199;-85
2022/09/01 09:24:05;;;;;;;8.40;7.80;;;22.90;69.50;;;;;;5107156;28;20209;-87
2022/09/01 09:26:31;;;;;;;7.72;7.13;;;23.00;71.00;;;;;;5107361;28;20250;-85
2022/09/01 09:28:57;;;;;;;7.68;7.07;;;23.20;68.10;;;;;;5107759;28;20221;-86
2022/09/01 09:31:37;;;;;;;7.47;6.80;;;23.20;69.60;;;;;;5105979;28;20190;-86
2022/09/01 09:34:15;;;;;;;7.53;6.93;;;23.40;66.10;;;;;;5096430;28;20233;-84
2022/09/01 09:36:44;;;;;;;7.28;6.75;;;23.30;67.70;;;;;;5098472;28;20654;-86
2022/09/01 09:39:12;;;;;;;5.97;5.57;;;23.30;67.00;;;;;;5098047;28;20214;-85
2022/09/01 09:41:40;;;;;;;7.30;6.70;;;23.40;65.90;;;;;;5105851;28;20206;-86
2022/09/01 09:44:25;;;;;;;7.03;6.53;;;23.40;66.10;;;;;;5107269;28;20248;-85
2022/09/01 09:46:51;;;;;;;6.90;6.20;;;23.50;66.10;;;;;;5102669;28;20183;-87
2022/09/01 09:49:31;;;;;;;6.93;6.05;;;23.60;64.50;;;;;;5097270;28;20270;-85
2022/09/01 09:52:07;;;;;;;5.90;5.40;;;23.40;64.40;;;;;;5099537;28;20198;-86
2022/09/01 09:54:35;;;;;;;7.05;6.55;;;23.20;65.50;;;;;;5097339;28;20230;-87
2022/09/01 09:57:07;;;;;;;7.50;6.80;;;23.10;66.70;;;;;;5096394;28;20236;-85
2022/09/01 09:59:41;;;;;;;6.30;5.80;;;23.40;65.50;;;;;;5093072;28;20183;-86
2022/09/01 10:02:22;;;;;;;6.15;5.70;;;23.70;64.60;;;;;;5097182;28;20190;-85
2022/09/01 10:04:48;;;;;;;6.10;5.60;;;23.90;63.60;;;;;;5094988;28;20203;-84
2022/09/01 10:07:36;;;;;;;5.43;5.07;;;24.20;61.70;;;;;;5094901;28;20679;-86
2022/09/01 10:10:23;;;;;;;5.65;5.25;;;24.00;59.80;;;;;;5097366;28;20581;-85
2022/09/01 10:12:51;;;;;;;5.88;5.38;;;23.90;59.20;;;;;;5094926;28;20203;-86
2022/09/01 10:15:21;;;;;;;5.55;5.15;;;23.70;60.00;;;;;;5096289;28;20218;-85
2022/09/01 10:17:50;;;;;;;5.72;5.22;;;23.60;61.70;;;;;;5098788;28;20266;-86
2022/09/01 10:20:21;;;;;;;5.63;5.22;;;23.50;61.00;;;;;;5099280;28;20198;-85
2022/09/01 10:22:48;;;;;;;5.93;5.50;;;23.40;61.30;;;;;;5092529;28;20195;-84
2022/09/01 10:25:27;;;;;;;5.38;4.93;;;23.50;62.10;;;;;;5093061;28;20866;-84
2022/09/01 10:27:58;;;;;;;6.20;5.70;;;23.90;61.80;;;;;;5087853;28;20683;-85
2022/09/01 10:30:24;;;;;;;5.85;5.43;;;24.10;59.60;;;;;;5093876;28;20191;-84
2022/09/01 10:32:57;;;;;;;5.45;4.95;;;24.50;58.50;;;;;;5103290;28;20206;-86
2022/09/01 10:35:30;;;;;;;5.50;5.03;;;24.70;57.00;;;;;;5104296;28;20194;-86
2022/09/01 10:37:58;;;;;;;5.28;4.90;;;24.50;56.30;;;;;;5097621;28;20183;-86
2022/09/01 10:40:27;;;;;;;5.72;5.32;;;24.60;57.30;;;;;;5095333;28;20198;-85
2022/09/01 10:42:59;;;;;;;5.65;5.15;;;25.00;55.70;;;;;;5099760;28;20235;-84
2022/09/01 10:45:36;;;;;;;5.75;5.35;;;25.40;53.80;;;;;;5098565;28;20214;-85
2022/09/01 10:48:20;;;;;;;5.45;5.05;;;25.50;53.40;;;;;;5095896;28;20195;-85
2022/09/01 10:50:48;;;;;;;5.32;4.82;;;25.30;55.60;;;;;;5095467;28;20743;-84
2022/09/01 10:53:38;;;;;;;6.05;5.65;;;25.30;54.40;;;;;;5101884;28;20191;-85
2022/09/01 10:56:22;;;;;;;5.97;5.57;;;25.40;51.80;;;;;;5100827;28;20194;-85
2022/09/01 10:59:06;;;;;;;5.97;5.57;;;25.30;53.00;;;;;;5102467;28;20175;-84
2022/09/01 11:01:44;;;;;;;5.72;5.32;;;25.60;52.90;;;;;;5100352;28;20179;-87
2022/09/01 11:04:14;;;;;;;5.70;5.28;;;25.90;51.50;;;;;;5102635;28;20262;-86
2022/09/01 11:06:40;;;;;;;5.93;5.53;;;26.00;51.30;;;;;;5103995;28;20178;-85
2022/09/01 11:09:44;;;;;;;6.10;5.70;;;26.10;51.20;;;;;;5101447;28;20405;-87
2022/09/01 11:12:23;;;;;;;6.00;5.60;;;26.00;50.50;;;;;;5089900;28;20230;-85
2022/09/01 11:15:01;;;;;;;5.70;5.30;;;25.30;51.20;;;;;;5096214;28;20270;-84
2022/09/01 11:17:30;;;;;;;6.05;5.57;;;25.30;50.30;;;;;;5100558;28;20186;-86
2022/09/01 11:20:24;;;;;;;6.10;5.68;;;25.70;50.20;;;;;;5102509;28;20214;-86
2022/09/01 11:22:56;;;;;;;5.55;5.25;;;26.40;48.80;;;;;;5088442;28;20237;-85
2022/09/01 11:25:37;;;;;;;5.70;5.30;;;26.80;48.10;;;;;;5103899;28;20210;-86
2022/09/01 11:28:22;;;;;;;6.30;5.72;;;26.70;48.40;;;;;;5101630;28;20255;-87
2022/09/01 11:30:57;;;;;;;6.15;5.75;;;26.90;46.90;;;;;;5105229;28;20179;-85
2022/09/01 11:33:25;;;;;;;6.28;5.88;;;26.50;47.40;;;;;;5105359;28;20197;-89
2022/09/01 11:36:04;;;;;;;5.80;5.40;;;26.60;48.20;;;;;;5095204;28;20202;-85
2022/09/01 11:38:42;;;;;;;6.03;5.63;;;27.00;48.00;;;;;;5097845;28;20209;-87
2022/09/01 11:41:08;;;;;;;6.35;5.80;;;27.20;47.00;;;;;;5091959;28;20586;-86
2022/09/01 11:43:35;;;;;;;6.38;5.88;;;26.90;47.00;;;;;;5099342;28;20207;-86
2022/09/01 11:46:23;;;;;;;5.88;5.43;;;26.50;47.80;;;;;;5104034;28;20201;-85
2022/09/01 11:48:49;;;;;;;6.45;6.05;;;26.30;49.90;;;;;;5105226;28;20242;-86
2022/09/01 11:51:16;;;;;;;7.05;6.55;;;26.70;48.30;;;;;;5096008;28;20210;-86
2022/09/01 11:53:43;;;;;;;6.72;6.32;;;27.00;47.90;;;;;;5095459;28;20594;-87
2022/09/01 11:56:25;;;;;;;6.88;6.28;;;27.20;46.10;;;;;;5094842;28;20192;-86
2022/09/01 11:58:51;;;;;;;8.85;7.13;;;27.60;45.50;;;;;;5099654;28;20179;-86
2022/09/01 12:01:38;;;;;;;6.50;6.10;;;27.50;45.00;;;;;;5096158;28;20229;-86
2022/09/01 12:04:17;;;;;;;7.05;6.55;;;27.80;44.70;;;;;;5096238;28;20203;-85
2022/09/01 12:06:58;;;;;;;6.30;5.90;;;28.30;42.90;;;;;;5094110;28;20265;-86
2022/09/01 12:09:41;;;;;;;5.72;5.32;;;27.90;42.30;;;;;;5090548;28;20242;-86
2022/09/01 12:12:25;;;;;;;6.38;5.97;;;27.30;43.20;;;;;;5089957;28;20201;-86
2022/09/01 12:14:57;;;;;;;5.95;5.45;;;26.70;45.30;;;;;;5102158;28;20219;-86
2022/09/01 12:17:22;;;;;;;6.43;5.82;;;27.00;46.60;;;;;;5091461;28;20205;-86
2022/09/01 12:19:48;;;;;;;5.88;5.47;;;27.30;45.20;;;;;;5095347;28;20190;-86
2022/09/01 12:22:17;;;;;;;6.03;5.63;;;27.40;42.40;;;;;;5095097;28;20187;-85
2022/09/01 12:24:46;;;;;;;6.30;5.85;;;27.60;43.40;;;;;;5085955;28;20223;-87
2022/09/01 12:27:12;;;;;;;7.20;6.70;;;28.20;42.30;;;;;;5086696;28;20663;-86
2022/09/01 12:29:38;;;;;;;6.20;5.70;;;28.40;44.00;;;;;;5091140;28;20668;-87
2022/09/01 12:32:04;;;;;;;6.18;5.78;;;28.70;38.90;;;;;;5090361;28;20198;-86
2022/09/01 12:34:42;;;;;;;6.40;6.00;;;29.20;37.00;;;;;;5090511;28;20708;-85
2022/09/01 12:37:21;;;;;;;6.35;5.95;;;29.40;38.40;;;;;;5091144;28;20189;-86
2022/09/01 12:39:50;;;;;;;6.90;6.40;;;29.80;37.60;;;;;;5092147;28;20194;-85
2022/09/01 12:42:19;;;;;;;6.93;6.43;;;29.20;39.30;;;;;;5090932;28;20182;-85
2022/09/01 12:44:45;;;;;;;6.53;5.90;;;28.80;38.70;;;;;;5090145;28;20207;-86
2022/09/01 12:47:39;;;;;;;5.85;5.45;;;29.40;38.20;;;;;;5090573;28;20262;-85
2022/09/01 12:50:27;;;;;;;6.00;5.60;;;29.20;36.90;;;;;;5096976;28;20237;-86
2022/09/01 12:52:58;;;;;;;6.47;6.03;;;28.30;38.40;;;;;;5084249;28;20294;-85
2022/09/01 12:55:33;;;;;;;6.63;6.00;;;27.90;40.10;;;;;;5094173;28;20214;-86
2022/09/01 12:58:07;;;;;;;5.72;5.32;;;27.80;40.00;;;;;;5094211;28;20205;-85
2022/09/01 13:00:36;;;;;;;6.10;5.70;;;27.70;40.50;;;;;;5087139;28;20190;-84
2022/09/01 13:03:02;;;;;;;5.72;5.32;;;27.70;40.20;;;;;;5094566;28;20183;-84
2022/09/01 13:05:38;;;;;;;6.03;5.63;;;28.20;39.00;;;;;;5093968;28;20217;-85
2022/09/01 13:08:17;;;;;;;6.68;6.15;;;28.60;37.30;;;;;;5093794;28;20191;-86